CheckWX is a tool to help pilots better visualize weather data.  It is not intended as a substitute for an official pre-flight weather briefing.

12:50:04 UTC

KLRF TAF
Little Rock AFB Airport
Jacksonville, Arkansas, USA
TAF KLRF 220700Z 2207/2313 VRB06KT 9999 SKC QNH3010INS TX17/2220Z TN02/2212Z

Mar-22@
07:00 UTC

Mar-22 @ 07:00 UTC

Mar-23@
13:00 UTC

Mar-23 @ 13:00 UTC

TAF KLRF 220700Z 2207/2313 VRB06KT 9999 SKC QNH3010INS TX17/2220Z TN02/2212Z
Wind
  • Variable at 6 KTS
Cloud Levels
  • Clear skies